sensor_id;sensor_type;location;lat;lon;timestamp;P1;durP1;ratioP1;P2;durP2;ratioP2
24357;SDS011;13668;52.154;5.580;2023-04-03T00:00:07;2.05;;;1.52;;
24357;SDS011;13668;52.154;5.580;2023-04-03T00:02:33;2.55;;;1.60;;
24357;SDS011;13668;52.154;5.580;2023-04-03T00:04:59;2.35;;;1.27;;
24357;SDS011;13668;52.154;5.580;2023-04-03T00:07:25;2.10;;;1.30;;
24357;SDS011;13668;52.154;5.580;2023-04-03T00:09:51;2.40;;;1.23;;
24357;SDS011;13668;52.154;5.580;2023-04-03T00:12:17;3.30;;;1.50;;
24357;SDS011;13668;52.154;5.580;2023-04-03T00:14:43;2.42;;;1.50;;
24357;SDS011;13668;52.154;5.580;2023-04-03T00:17:09;3.28;;;1.55;;
24357;SDS011;13668;52.154;5.580;2023-04-03T00:19:35;2.63;;;1.45;;
24357;SDS011;13668;52.154;5.580;2023-04-03T00:22:01;3.97;;;2.55;;
24357;SDS011;13668;52.154;5.580;2023-04-03T00:24:27;2.33;;;1.52;;
24357;SDS011;13668;52.154;5.580;2023-04-03T00:26:53;4.35;;;1.73;;
24357;SDS011;13668;52.154;5.580;2023-04-03T00:29:19;2.05;;;1.65;;
24357;SDS011;13668;52.154;5.580;2023-04-03T00:31:45;3.03;;;1.60;;
24357;SDS011;13668;52.154;5.580;2023-04-03T00:34:11;4.22;;;1.60;;
24357;SDS011;13668;52.154;5.580;2023-04-03T00:36:37;3.25;;;1.77;;
24357;SDS011;13668;52.154;5.580;2023-04-03T00:39:03;2.15;;;1.50;;
24357;SDS011;13668;52.154;5.580;2023-04-03T00:41:29;3.53;;;1.55;;
24357;SDS011;13668;52.154;5.580;2023-04-03T00:43:55;2.97;;;1.65;;
24357;SDS011;13668;52.154;5.580;2023-04-03T00:46:21;2.22;;;1.65;;
24357;SDS011;13668;52.154;5.580;2023-04-03T00:48:48;1.50;;;1.40;;
24357;SDS011;13668;52.154;5.580;2023-04-03T00:51:18;1.70;;;1.52;;
24357;SDS011;13668;52.154;5.580;2023-04-03T00:53:49;2.85;;;1.60;;
24357;SDS011;13668;52.154;5.580;2023-04-03T00:56:17;2.60;;;1.40;;
24357;SDS011;13668;52.154;5.580;2023-04-03T00:58:44;2.10;;;1.30;;
24357;SDS011;13668;52.154;5.580;2023-04-03T01:01:14;2.20;;;1.95;;
24357;SDS011;13668;52.154;5.580;2023-04-03T01:03:41;3.17;;;1.60;;
24357;SDS011;13668;52.154;5.580;2023-04-03T01:06:07;2.53;;;1.60;;
24357;SDS011;13668;52.154;5.580;2023-04-03T01:08:33;2.00;;;1.50;;
24357;SDS011;13668;52.154;5.580;2023-04-03T01:11:00;2.75;;;1.30;;
24357;SDS011;13668;52.154;5.580;2023-04-03T01:13:27;3.20;;;1.75;;
24357;SDS011;13668;52.154;5.580;2023-04-03T01:15:54;1.60;;;1.50;;
24357;SDS011;13668;52.154;5.580;2023-04-03T01:18:20;3.53;;;1.52;;
24357;SDS011;13668;52.154;5.580;2023-04-03T01:21:06;3.03;;;1.40;;
24357;SDS011;13668;52.154;5.580;2023-04-03T01:23:47;2.70;;;1.60;;
24357;SDS011;13668;52.154;5.580;2023-04-03T01:26:15;3.72;;;1.60;;
24357;SDS011;13668;52.154;5.580;2023-04-03T01:28:41;1.73;;;1.55;;
24357;SDS011;13668;52.154;5.580;2023-04-03T01:31:27;4.18;;;1.83;;
24357;SDS011;13668;52.154;5.580;2023-04-03T01:33:54;1.95;;;1.67;;
24357;SDS011;13668;52.154;5.580;2023-04-03T01:36:21;1.83;;;1.63;;
24357;SDS011;13668;52.154;5.580;2023-04-03T01:38:49;3.38;;;1.50;;
24357;SDS011;13668;52.154;5.580;2023-04-03T01:41:15;2.15;;;1.52;;
24357;SDS011;13668;52.154;5.580;2023-04-03T01:43:41;6.07;;;1.67;;
24357;SDS011;13668;52.154;5.580;2023-04-03T01:46:07;4.43;;;1.50;;
24357;SDS011;13668;52.154;5.580;2023-04-03T01:48:33;4.10;;;1.75;;
24357;SDS011;13668;52.154;5.580;2023-04-03T01:50:59;4.78;;;1.80;;
24357;SDS011;13668;52.154;5.580;2023-04-03T01:53:25;2.45;;;1.73;;
24357;SDS011;13668;52.154;5.580;2023-04-03T01:55:51;2.67;;;2.05;;
24357;SDS011;13668;52.154;5.580;2023-04-03T01:58:17;1.88;;;1.70;;
24357;SDS011;13668;52.154;5.580;2023-04-03T02:00:43;3.10;;;1.70;;
24357;SDS011;13668;52.154;5.580;2023-04-03T02:03:09;8.50;;;2.42;;
24357;SDS011;13668;52.154;5.580;2023-04-03T02:05:35;2.58;;;1.55;;
24357;SDS011;13668;52.154;5.580;2023-04-03T02:08:01;3.42;;;1.75;;
24357;SDS011;13668;52.154;5.580;2023-04-03T02:10:27;4.72;;;1.80;;
24357;SDS011;13668;52.154;5.580;2023-04-03T02:12:53;2.08;;;1.63;;
24357;SDS011;13668;52.154;5.580;2023-04-03T02:15:19;3.55;;;1.90;;
24357;SDS011;13668;52.154;5.580;2023-04-03T02:17:45;2.40;;;1.90;;
24357;SDS011;13668;52.154;5.580;2023-04-03T02:20:11;3.70;;;1.48;;
24357;SDS011;13668;52.154;5.580;2023-04-03T02:22:37;4.40;;;1.70;;
24357;SDS011;13668;52.154;5.580;2023-04-03T02:25:03;2.55;;;1.77;;
24357;SDS011;13668;52.154;5.580;2023-04-03T02:27:30;4.55;;;1.88;;
24357;SDS011;13668;52.154;5.580;2023-04-03T02:29:57;2.95;;;2.05;;
24357;SDS011;13668;52.154;5.580;2023-04-03T02:32:23;5.65;;;1.88;;
24357;SDS011;13668;52.154;5.580;2023-04-03T02:34:49;3.47;;;1.92;;
24357;SDS011;13668;52.154;5.580;2023-04-03T02:37:15;2.20;;;1.85;;
24357;SDS011;13668;52.154;5.580;2023-04-03T02:39:41;3.38;;;1.75;;
24357;SDS011;13668;52.154;5.580;2023-04-03T02:42:07;3.90;;;1.58;;
24357;SDS011;13668;52.154;5.580;2023-04-03T02:44:33;2.92;;;1.85;;
24357;SDS011;13668;52.154;5.580;2023-04-03T02:46:59;4.95;;;2.05;;
24357;SDS011;13668;52.154;5.580;2023-04-03T02:49:25;5.00;;;1.85;;
24357;SDS011;13668;52.154;5.580;2023-04-03T02:51:51;4.97;;;1.98;;
24357;SDS011;13668;52.154;5.580;2023-04-03T02:54:17;4.75;;;1.80;;
24357;SDS011;13668;52.154;5.580;2023-04-03T02:56:43;3.58;;;1.65;;
24357;SDS011;13668;52.154;5.580;2023-04-03T02:59:09;2.40;;;2.00;;
24357;SDS011;13668;52.154;5.580;2023-04-03T03:01:35;4.40;;;2.10;;
24357;SDS011;13668;52.154;5.580;2023-04-03T03:04:01;4.10;;;2.08;;
24357;SDS011;13668;52.154;5.580;2023-04-03T03:06:27;2.70;;;2.13;;
24357;SDS011;13668;52.154;5.580;2023-04-03T03:08:53;4.22;;;1.92;;
24357;SDS011;13668;52.154;5.580;2023-04-03T03:11:19;5.15;;;2.38;;
24357;SDS011;13668;52.154;5.580;2023-04-03T03:13:45;3.72;;;2.35;;
24357;SDS011;13668;52.154;5.580;2023-04-03T03:16:11;4.43;;;2.10;;
24357;SDS011;13668;52.154;5.580;2023-04-03T03:18:37;4.60;;;2.13;;
24357;SDS011;13668;52.154;5.580;2023-04-03T03:21:03;3.75;;;1.92;;
24357;SDS011;13668;52.154;5.580;2023-04-03T03:23:30;3.10;;;1.75;;
24357;SDS011;13668;52.154;5.580;2023-04-03T03:26:01;4.88;;;2.22;;
24357;SDS011;13668;52.154;5.580;2023-04-03T03:28:27;2.22;;;1.70;;
24357;SDS011;13668;52.154;5.580;2023-04-03T03:30:53;4.65;;;1.95;;
24357;SDS011;13668;52.154;5.580;2023-04-03T03:33:19;5.22;;;2.05;;
24357;SDS011;13668;52.154;5.580;2023-04-03T03:35:45;5.47;;;2.47;;
24357;SDS011;13668;52.154;5.580;2023-04-03T03:38:11;7.53;;;2.80;;
24357;SDS011;13668;52.154;5.580;2023-04-03T03:40:38;3.35;;;1.88;;
24357;SDS011;13668;52.154;5.580;2023-04-03T03:43:04;4.68;;;2.58;;
24357;SDS011;13668;52.154;5.580;2023-04-03T03:45:30;4.53;;;2.17;;
24357;SDS011;13668;52.154;5.580;2023-04-03T03:47:56;2.97;;;2.13;;
24357;SDS011;13668;52.154;5.580;2023-04-03T03:50:22;3.65;;;1.95;;
24357;SDS011;13668;52.154;5.580;2023-04-03T03:52:48;3.40;;;1.95;;
24357;SDS011;13668;52.154;5.580;2023-04-03T03:55:14;5.10;;;2.03;;
24357;SDS011;13668;52.154;5.580;2023-04-03T03:57:40;3.72;;;2.22;;
24357;SDS011;13668;52.154;5.580;2023-04-03T04:00:06;6.85;;;2.03;;
24357;SDS011;13668;52.154;5.580;2023-04-03T04:02:33;3.50;;;2.55;;
24357;SDS011;13668;52.154;5.580;2023-04-03T04:04:59;3.88;;;2.50;;
24357;SDS011;13668;52.154;5.580;2023-04-03T04:07:25;6.18;;;2.90;;
24357;SDS011;13668;52.154;5.580;2023-04-03T04:09:53;4.28;;;2.42;;
24357;SDS011;13668;52.154;5.580;2023-04-03T04:12:19;5.70;;;2.40;;
24357;SDS011;13668;52.154;5.580;2023-04-03T04:14:45;3.97;;;2.10;;
24357;SDS011;13668;52.154;5.580;2023-04-03T04:17:12;4.35;;;2.15;;
24357;SDS011;13668;52.154;5.580;2023-04-03T04:19:38;8.50;;;2.58;;
24357;SDS011;13668;52.154;5.580;2023-04-03T04:22:04;4.75;;;2.03;;
24357;SDS011;13668;52.154;5.580;2023-04-03T04:24:30;4.50;;;2.60;;
24357;SDS011;13668;52.154;5.580;2023-04-03T04:26:56;5.13;;;2.60;;
24357;SDS011;13668;52.154;5.580;2023-04-03T04:29:22;4.18;;;2.20;;
24357;SDS011;13668;52.154;5.580;2023-04-03T04:31:48;7.82;;;2.88;;
24357;SDS011;13668;52.154;5.580;2023-04-03T04:34:14;8.60;;;2.63;;
24357;SDS011;13668;52.154;5.580;2023-04-03T04:36:40;3.65;;;2.42;;
24357;SDS011;13668;52.154;5.580;2023-04-03T04:39:06;4.15;;;2.80;;
24357;SDS011;13668;52.154;5.580;2023-04-03T04:41:32;8.07;;;3.25;;
24357;SDS011;13668;52.154;5.580;2023-04-03T04:43:58;8.25;;;2.65;;
24357;SDS011;13668;52.154;5.580;2023-04-03T04:46:24;3.80;;;2.72;;
24357;SDS011;13668;52.154;5.580;2023-04-03T04:48:50;4.28;;;2.60;;
24357;SDS011;13668;52.154;5.580;2023-04-03T04:51:16;6.10;;;2.60;;
24357;SDS011;13668;52.154;5.580;2023-04-03T04:53:42;6.13;;;2.75;;
24357;SDS011;13668;52.154;5.580;2023-04-03T04:56:08;4.45;;;2.63;;
24357;SDS011;13668;52.154;5.580;2023-04-03T04:58:35;6.03;;;2.88;;
24357;SDS011;13668;52.154;5.580;2023-04-03T05:01:07;6.10;;;2.38;;
24357;SDS011;13668;52.154;5.580;2023-04-03T05:03:33;5.68;;;2.60;;
24357;SDS011;13668;52.154;5.580;2023-04-03T05:05:59;6.90;;;2.88;;
24357;SDS011;13668;52.154;5.580;2023-04-03T05:08:26;8.80;;;2.72;;
24357;SDS011;13668;52.154;5.580;2023-04-03T05:10:52;6.90;;;3.00;;
24357;SDS011;13668;52.154;5.580;2023-04-03T05:13:18;5.47;;;2.83;;
24357;SDS011;13668;52.154;5.580;2023-04-03T05:15:44;5.43;;;2.45;;
24357;SDS011;13668;52.154;5.580;2023-04-03T05:18:10;4.70;;;2.85;;
24357;SDS011;13668;52.154;5.580;2023-04-03T05:20:36;7.68;;;2.80;;
24357;SDS011;13668;52.154;5.580;2023-04-03T05:23:02;7.05;;;3.15;;
24357;SDS011;13668;52.154;5.580;2023-04-03T05:25:28;6.45;;;2.60;;
24357;SDS011;13668;52.154;5.580;2023-04-03T05:27:54;4.45;;;2.47;;
24357;SDS011;13668;52.154;5.580;2023-04-03T05:30:20;2.65;;;2.08;;
24357;SDS011;13668;52.154;5.580;2023-04-03T05:32:46;5.28;;;2.60;;
24357;SDS011;13668;52.154;5.580;2023-04-03T05:35:13;6.85;;;2.92;;
24357;SDS011;13668;52.154;5.580;2023-04-03T05:37:39;4.95;;;3.00;;
24357;SDS011;13668;52.154;5.580;2023-04-03T05:40:06;5.68;;;3.00;;
24357;SDS011;13668;52.154;5.580;2023-04-03T05:42:32;4.40;;;2.65;;
24357;SDS011;13668;52.154;5.580;2023-04-03T05:44:58;4.93;;;2.60;;
24357;SDS011;13668;52.154;5.580;2023-04-03T05:47:24;5.45;;;2.60;;
24357;SDS011;13668;52.154;5.580;2023-04-03T05:49:50;4.10;;;2.55;;
24357;SDS011;13668;52.154;5.580;2023-04-03T05:52:18;5.90;;;2.72;;
24357;SDS011;13668;52.154;5.580;2023-04-03T05:54:46;5.88;;;2.88;;
24357;SDS011;13668;52.154;5.580;2023-04-03T05:57:13;3.23;;;2.80;;
24357;SDS011;13668;52.154;5.580;2023-04-03T05:59:39;8.52;;;2.60;;
24357;SDS011;13668;52.154;5.580;2023-04-03T06:02:05;4.28;;;2.78;;
24357;SDS011;13668;52.154;5.580;2023-04-03T06:04:31;5.43;;;2.45;;
24357;SDS011;13668;52.154;5.580;2023-04-03T06:06:57;4.05;;;2.63;;
24357;SDS011;13668;52.154;5.580;2023-04-03T06:09:24;6.60;;;2.72;;
24357;SDS011;13668;52.154;5.580;2023-04-03T06:11:51;5.13;;;2.22;;
24357;SDS011;13668;52.154;5.580;2023-04-03T06:14:17;8.25;;;3.10;;
24357;SDS011;13668;52.154;5.580;2023-04-03T06:16:43;7.78;;;2.97;;
24357;SDS011;13668;52.154;5.580;2023-04-03T06:19:09;7.85;;;2.35;;
24357;SDS011;13668;52.154;5.580;2023-04-03T06:21:36;5.05;;;3.28;;
24357;SDS011;13668;52.154;5.580;2023-04-03T06:24:05;6.68;;;2.85;;
24357;SDS011;13668;52.154;5.580;2023-04-03T06:26:31;5.75;;;2.90;;
24357;SDS011;13668;52.154;5.580;2023-04-03T06:28:58;6.97;;;2.78;;
24357;SDS011;13668;52.154;5.580;2023-04-03T06:31:24;5.60;;;2.60;;
24357;SDS011;13668;52.154;5.580;2023-04-03T06:33:50;3.17;;;2.50;;
24357;SDS011;13668;52.154;5.580;2023-04-03T06:36:17;8.30;;;2.47;;
24357;SDS011;13668;52.154;5.580;2023-04-03T06:38:45;4.38;;;2.65;;
24357;SDS011;13668;52.154;5.580;2023-04-03T06:41:11;4.18;;;2.08;;
24357;SDS011;13668;52.154;5.580;2023-04-03T06:43:37;9.63;;;3.22;;
24357;SDS011;13668;52.154;5.580;2023-04-03T06:46:03;5.35;;;2.22;;
24357;SDS011;13668;52.154;5.580;2023-04-03T06:48:30;4.85;;;2.92;;
24357;SDS011;13668;52.154;5.580;2023-04-03T06:50:56;5.13;;;2.67;;
24357;SDS011;13668;52.154;5.580;2023-04-03T06:53:22;6.13;;;2.70;;
24357;SDS011;13668;52.154;5.580;2023-04-03T06:55:48;6.07;;;2.08;;
24357;SDS011;13668;52.154;5.580;2023-04-03T06:58:14;4.32;;;1.85;;
24357;SDS011;13668;52.154;5.580;2023-04-03T07:00:42;3.83;;;2.20;;
24357;SDS011;13668;52.154;5.580;2023-04-03T07:03:08;5.32;;;1.92;;
24357;SDS011;13668;52.154;5.580;2023-04-03T07:05:34;3.15;;;1.67;;
24357;SDS011;13668;52.154;5.580;2023-04-03T07:07:59;1.67;;;1.48;;
24357;SDS011;13668;52.154;5.580;2023-04-03T07:10:25;2.30;;;1.70;;
24357;SDS011;13668;52.154;5.580;2023-04-03T07:12:51;3.85;;;1.83;;
24357;SDS011;13668;52.154;5.580;2023-04-03T07:15:17;2.75;;;1.48;;
24357;SDS011;13668;52.154;5.580;2023-04-03T07:17:43;2.20;;;1.38;;
24357;SDS011;13668;52.154;5.580;2023-04-03T07:20:09;4.13;;;1.83;;
24357;SDS011;13668;52.154;5.580;2023-04-03T07:22:40;3.05;;;1.42;;
24357;SDS011;13668;52.154;5.580;2023-04-03T07:25:06;3.75;;;1.33;;
24357;SDS011;13668;52.154;5.580;2023-04-03T07:27:32;2.55;;;1.50;;
24357;SDS011;13668;52.154;5.580;2023-04-03T07:29:58;3.90;;;2.53;;
24357;SDS011;13668;52.154;5.580;2023-04-03T07:32:24;4.72;;;1.88;;
24357;SDS011;13668;52.154;5.580;2023-04-03T07:34:50;2.80;;;1.70;;
24357;SDS011;13668;52.154;5.580;2023-04-03T07:37:16;3.90;;;1.85;;
24357;SDS011;13668;52.154;5.580;2023-04-03T07:39:43;4.57;;;1.83;;
24357;SDS011;13668;52.154;5.580;2023-04-03T07:42:10;4.55;;;1.70;;
24357;SDS011;13668;52.154;5.580;2023-04-03T07:44:37;3.47;;;1.50;;
24357;SDS011;13668;52.154;5.580;2023-04-03T07:47:03;4.05;;;1.75;;
24357;SDS011;13668;52.154;5.580;2023-04-03T07:49:29;2.47;;;1.20;;
24357;SDS011;13668;52.154;5.580;2023-04-03T07:51:55;4.05;;;1.70;;
24357;SDS011;13668;52.154;5.580;2023-04-03T07:54:21;2.63;;;1.52;;
24357;SDS011;13668;52.154;5.580;2023-04-03T07:56:46;2.45;;;1.30;;
24357;SDS011;13668;52.154;5.580;2023-04-03T07:59:13;1.92;;;1.13;;
24357;SDS011;13668;52.154;5.580;2023-04-03T08:01:39;2.75;;;1.40;;
24357;SDS011;13668;52.154;5.580;2023-04-03T08:04:05;4.03;;;1.08;;
24357;SDS011;13668;52.154;5.580;2023-04-03T08:06:31;3.65;;;1.75;;
24357;SDS011;13668;52.154;5.580;2023-04-03T08:09:00;3.22;;;1.63;;
24357;SDS011;13668;52.154;5.580;2023-04-03T08:11:26;3.45;;;1.40;;
24357;SDS011;13668;52.154;5.580;2023-04-03T08:13:53;2.83;;;1.20;;
24357;SDS011;13668;52.154;5.580;2023-04-03T08:16:20;2.15;;;1.08;;
24357;SDS011;13668;52.154;5.580;2023-04-03T08:18:46;3.60;;;1.35;;
24357;SDS011;13668;52.154;5.580;2023-04-03T08:21:12;2.42;;;0.98;;
24357;SDS011;13668;52.154;5.580;2023-04-03T08:23:39;3.20;;;1.15;;
24357;SDS011;13668;52.154;5.580;2023-04-03T08:26:10;2.55;;;1.13;;
24357;SDS011;13668;52.154;5.580;2023-04-03T08:28:36;1.35;;;1.13;;
24357;SDS011;13668;52.154;5.580;2023-04-03T08:31:03;2.20;;;1.15;;
24357;SDS011;13668;52.154;5.580;2023-04-03T08:33:30;1.88;;;1.00;;
24357;SDS011;13668;52.154;5.580;2023-04-03T08:35:57;1.63;;;0.88;;
24357;SDS011;13668;52.154;5.580;2023-04-03T08:38:22;1.70;;;0.73;;
24357;SDS011;13668;52.154;5.580;2023-04-03T08:40:59;1.40;;;0.73;;
24357;SDS011;13668;52.154;5.580;2023-04-03T08:45:57;2.03;;;0.73;;
24357;SDS011;13668;52.154;5.580;2023-04-03T08:48:33;1.92;;;0.85;;
24357;SDS011;13668;52.154;5.580;2023-04-03T08:51:00;2.70;;;0.80;;
24357;SDS011;13668;52.154;5.580;2023-04-03T08:53:30;1.60;;;0.50;;
24357;SDS011;13668;52.154;5.580;2023-04-03T08:55:57;1.35;;;0.80;;
24357;SDS011;13668;52.154;5.580;2023-04-03T08:58:30;1.75;;;0.70;;
24357;SDS011;13668;52.154;5.580;2023-04-03T09:01:03;1.73;;;0.70;;
24357;SDS011;13668;52.154;5.580;2023-04-03T09:03:30;2.55;;;0.60;;
24357;SDS011;13668;52.154;5.580;2023-04-03T09:06:00;2.40;;;0.75;;
24357;SDS011;13668;52.154;5.580;2023-04-03T09:08:30;2.92;;;0.73;;
24357;SDS011;13668;52.154;5.580;2023-04-03T09:11:04;1.60;;;0.80;;
24357;SDS011;13668;52.154;5.580;2023-04-03T09:16:06;1.58;;;0.38;;
24357;SDS011;13668;52.154;5.580;2023-04-03T09:18:41;2.47;;;0.52;;
24357;SDS011;13668;52.154;5.580;2023-04-03T09:21:19;0.80;;;0.60;;
24357;SDS011;13668;52.154;5.580;2023-04-03T09:23:53;2.60;;;0.63;;
24357;SDS011;13668;52.154;5.580;2023-04-03T09:26:23;1.20;;;0.38;;
24357;SDS011;13668;52.154;5.580;2023-04-03T09:28:51;0.70;;;0.40;;
24357;SDS011;13668;52.154;5.580;2023-04-03T09:31:20;1.20;;;0.35;;
24357;SDS011;13668;52.154;5.580;2023-04-03T09:33:50;1.05;;;0.30;;
24357;SDS011;13668;52.154;5.580;2023-04-03T09:36:37;0.80;;;0.25;;
24357;SDS011;13668;52.154;5.580;2023-04-03T09:39:08;0.30;;;0.30;;
24357;SDS011;13668;52.154;5.580;2023-04-03T09:41:35;0.15;;;0.15;;
24357;SDS011;13668;52.154;5.580;2023-04-03T09:44:01;0.82;;;0.30;;
24357;SDS011;13668;52.154;5.580;2023-04-03T09:46:31;3.30;;;0.68;;
24357;SDS011;13668;52.154;5.580;2023-04-03T09:48:58;0.90;;;0.20;;
24357;SDS011;13668;52.154;5.580;2023-04-03T09:51:24;0.43;;;0.38;;
24357;SDS011;13668;52.154;5.580;2023-04-03T09:53:52;1.05;;;0.30;;
24357;SDS011;13668;52.154;5.580;2023-04-03T09:58:49;0.35;;;0.28;;
24357;SDS011;13668;52.154;5.580;2023-04-03T10:01:31;0.25;;;0.25;;
24357;SDS011;13668;52.154;5.580;2023-04-03T10:04:05;2.47;;;0.40;;
24357;SDS011;13668;52.154;5.580;2023-04-03T10:06:32;0.82;;;0.40;;
24357;SDS011;13668;52.154;5.580;2023-04-03T10:09:02;0.40;;;0.22;;
24357;SDS011;13668;52.154;5.580;2023-04-03T10:11:29;0.40;;;0.22;;
24357;SDS011;13668;52.154;5.580;2023-04-03T10:13:58;2.22;;;0.30;;
24357;SDS011;13668;52.154;5.580;2023-04-03T10:16:47;0.68;;;0.60;;
24357;SDS011;13668;52.154;5.580;2023-04-03T10:19:31;1.45;;;0.38;;
24357;SDS011;13668;52.154;5.580;2023-04-03T10:22:02;0.45;;;0.22;;
24357;SDS011;13668;52.154;5.580;2023-04-03T10:24:47;1.67;;;0.32;;
24357;SDS011;13668;52.154;5.580;2023-04-03T10:30:04;1.38;;;0.50;;
24357;SDS011;13668;52.154;5.580;2023-04-03T10:40:38;1.88;;;0.82;;
24357;SDS011;13668;52.154;5.580;2023-04-03T10:48:22;1.73;;;0.57;;
24357;SDS011;13668;52.154;5.580;2023-04-03T10:53:23;1.02;;;0.40;;
24357;SDS011;13668;52.154;5.580;2023-04-03T10:58:28;3.35;;;0.70;;
24357;SDS011;13668;52.154;5.580;2023-04-03T11:00:57;1.67;;;0.50;;
24357;SDS011;13668;52.154;5.580;2023-04-03T11:03:27;0.70;;;0.43;;
24357;SDS011;13668;52.154;5.580;2023-04-03T11:05:56;2.15;;;0.60;;
24357;SDS011;13668;52.154;5.580;2023-04-03T11:08:33;1.33;;;0.47;;
24357;SDS011;13668;52.154;5.580;2023-04-03T11:11:03;1.50;;;0.70;;
24357;SDS011;13668;52.154;5.580;2023-04-03T11:13:34;1.77;;;0.80;;
24357;SDS011;13668;52.154;5.580;2023-04-03T11:16:05;1.67;;;0.60;;
24357;SDS011;13668;52.154;5.580;2023-04-03T11:18:37;1.20;;;0.50;;
24357;SDS011;13668;52.154;5.580;2023-04-03T11:21:13;1.80;;;0.70;;
24357;SDS011;13668;52.154;5.580;2023-04-03T11:23:41;1.55;;;0.55;;
24357;SDS011;13668;52.154;5.580;2023-04-03T11:26:09;1.10;;;0.55;;
24357;SDS011;13668;52.154;5.580;2023-04-03T11:28:36;1.20;;;0.45;;
24357;SDS011;13668;52.154;5.580;2023-04-03T11:31:07;1.23;;;0.50;;
24357;SDS011;13668;52.154;5.580;2023-04-03T11:36:10;2.08;;;0.63;;
24357;SDS011;13668;52.154;5.580;2023-04-03T11:38:38;0.47;;;0.32;;
24357;SDS011;13668;52.154;5.580;2023-04-03T11:41:08;1.17;;;0.60;;
24357;SDS011;13668;52.154;5.580;2023-04-03T11:43:39;1.40;;;0.98;;
24357;SDS011;13668;52.154;5.580;2023-04-03T11:46:06;1.45;;;0.63;;
24357;SDS011;13668;52.154;5.580;2023-04-03T11:51:02;0.40;;;0.30;;
24357;SDS011;13668;52.154;5.580;2023-04-03T11:53:47;1.35;;;0.50;;
24357;SDS011;13668;52.154;5.580;2023-04-03T12:01:43;1.30;;;0.60;;
24357;SDS011;13668;52.154;5.580;2023-04-03T12:04:11;2.95;;;0.70;;
24357;SDS011;13668;52.154;5.580;2023-04-03T12:09:21;5.55;;;0.90;;
24357;SDS011;13668;52.154;5.580;2023-04-03T12:11:48;2.05;;;0.60;;
24357;SDS011;13668;52.154;5.580;2023-04-03T12:14:15;1.35;;;0.60;;
24357;SDS011;13668;52.154;5.580;2023-04-03T12:16:43;1.50;;;0.60;;
24357;SDS011;13668;52.154;5.580;2023-04-03T12:26:48;1.33;;;0.63;;
24357;SDS011;13668;52.154;5.580;2023-04-03T12:34:43;0.73;;;0.73;;
24357;SDS011;13668;52.154;5.580;2023-04-03T12:37:22;0.82;;;0.50;;
24357;SDS011;13668;52.154;5.580;2023-04-03T12:40:00;1.17;;;0.60;;
24357;SDS011;13668;52.154;5.580;2023-04-03T12:45:19;2.65;;;0.60;;
24357;SDS011;13668;52.154;5.580;2023-04-03T12:47:45;1.63;;;1.08;;
24357;SDS011;13668;52.154;5.580;2023-04-03T12:50:16;4.65;;;0.90;;
24357;SDS011;13668;52.154;5.580;2023-04-03T12:52:45;1.23;;;0.63;;
24357;SDS011;13668;52.154;5.580;2023-04-03T12:55:15;2.15;;;0.93;;
24357;SDS011;13668;52.154;5.580;2023-04-03T12:57:41;0.82;;;0.68;;
24357;SDS011;13668;52.154;5.580;2023-04-03T13:02:48;1.10;;;0.70;;
24357;SDS011;13668;52.154;5.580;2023-04-03T13:05:16;3.05;;;0.98;;
24357;SDS011;13668;52.154;5.580;2023-04-03T13:07:43;3.40;;;1.02;;
24357;SDS011;13668;52.154;5.580;2023-04-03T13:12:44;2.30;;;0.80;;
24357;SDS011;13668;52.154;5.580;2023-04-03T13:15:21;1.15;;;0.70;;
24357;SDS011;13668;52.154;5.580;2023-04-03T13:17:48;2.17;;;1.08;;
24357;SDS011;13668;52.154;5.580;2023-04-03T13:20:24;2.40;;;0.90;;
24357;SDS011;13668;52.154;5.580;2023-04-03T13:22:52;1.75;;;1.00;;
24357;SDS011;13668;52.154;5.580;2023-04-03T13:25:20;2.75;;;1.10;;
24357;SDS011;13668;52.154;5.580;2023-04-03T13:27:46;1.10;;;0.65;;
24357;SDS011;13668;52.154;5.580;2023-04-03T13:32:51;2.67;;;0.88;;
24357;SDS011;13668;52.154;5.580;2023-04-03T13:35:25;1.55;;;0.77;;
24357;SDS011;13668;52.154;5.580;2023-04-03T13:37:58;1.25;;;0.60;;
24357;SDS011;13668;52.154;5.580;2023-04-03T13:40:24;2.65;;;1.00;;
24357;SDS011;13668;52.154;5.580;2023-04-03T13:43:06;2.22;;;0.85;;
24357;SDS011;13668;52.154;5.580;2023-04-03T13:45:34;1.02;;;0.73;;
24357;SDS011;13668;52.154;5.580;2023-04-03T13:50:57;1.38;;;0.63;;
24357;SDS011;13668;52.154;5.580;2023-04-03T13:53:24;2.25;;;0.80;;
24357;SDS011;13668;52.154;5.580;2023-04-03T13:56:05;1.48;;;0.90;;
24357;SDS011;13668;52.154;5.580;2023-04-03T13:58:32;1.88;;;0.90;;
24357;SDS011;13668;52.154;5.580;2023-04-03T14:01:17;4.65;;;1.08;;
24357;SDS011;13668;52.154;5.580;2023-04-03T14:03:46;2.28;;;1.20;;
24357;SDS011;13668;52.154;5.580;2023-04-03T14:06:13;1.92;;;0.77;;
24357;SDS011;13668;52.154;5.580;2023-04-03T14:08:40;3.67;;;1.55;;
24357;SDS011;13668;52.154;5.580;2023-04-03T14:11:09;2.90;;;1.08;;
24357;SDS011;13668;52.154;5.580;2023-04-03T14:13:36;2.15;;;0.88;;
24357;SDS011;13668;52.154;5.580;2023-04-03T14:16:02;1.77;;;0.90;;
24357;SDS011;13668;52.154;5.580;2023-04-03T14:18:28;4.15;;;1.08;;
24357;SDS011;13668;52.154;5.580;2023-04-03T14:20:54;1.40;;;0.88;;
24357;SDS011;13668;52.154;5.580;2023-04-03T14:23:21;2.67;;;1.08;;
24357;SDS011;13668;52.154;5.580;2023-04-03T14:25:47;1.02;;;0.90;;
24357;SDS011;13668;52.154;5.580;2023-04-03T14:28:16;2.40;;;1.02;;
24357;SDS011;13668;52.154;5.580;2023-04-03T14:30:42;1.92;;;1.40;;
24357;SDS011;13668;52.154;5.580;2023-04-03T14:33:10;1.63;;;1.30;;
24357;SDS011;13668;52.154;5.580;2023-04-03T14:35:38;3.72;;;1.55;;
24357;SDS011;13668;52.154;5.580;2023-04-03T14:38:05;2.95;;;1.23;;
24357;SDS011;13668;52.154;5.580;2023-04-03T14:40:31;2.55;;;1.05;;
24357;SDS011;13668;52.154;5.580;2023-04-03T14:42:57;1.13;;;0.68;;
24357;SDS011;13668;52.154;5.580;2023-04-03T14:45:24;1.50;;;1.05;;
24357;SDS011;13668;52.154;5.580;2023-04-03T14:47:52;2.80;;;0.95;;
24357;SDS011;13668;52.154;5.580;2023-04-03T14:50:20;2.05;;;1.10;;
24357;SDS011;13668;52.154;5.580;2023-04-03T14:52:46;2.47;;;1.10;;
24357;SDS011;13668;52.154;5.580;2023-04-03T14:55:15;3.00;;;0.93;;
24357;SDS011;13668;52.154;5.580;2023-04-03T14:57:41;2.35;;;1.00;;
24357;SDS011;13668;52.154;5.580;2023-04-03T15:00:11;2.35;;;1.40;;
24357;SDS011;13668;52.154;5.580;2023-04-03T15:02:38;2.10;;;1.15;;
24357;SDS011;13668;52.154;5.580;2023-04-03T15:05:06;2.50;;;1.20;;
24357;SDS011;13668;52.154;5.580;2023-04-03T15:07:33;2.97;;;1.02;;
24357;SDS011;13668;52.154;5.580;2023-04-03T15:10:09;1.67;;;1.10;;
24357;SDS011;13668;52.154;5.580;2023-04-03T15:12:39;2.22;;;1.42;;
24357;SDS011;13668;52.154;5.580;2023-04-03T15:15:05;2.65;;;0.98;;
24357;SDS011;13668;52.154;5.580;2023-04-03T15:17:31;2.20;;;1.00;;
24357;SDS011;13668;52.154;5.580;2023-04-03T15:19:58;6.18;;;1.02;;
24357;SDS011;13668;52.154;5.580;2023-04-03T15:22:24;1.27;;;0.93;;
24357;SDS011;13668;52.154;5.580;2023-04-03T15:24:50;5.63;;;1.80;;
24357;SDS011;13668;52.154;5.580;2023-04-03T15:27:16;2.38;;;1.20;;
24357;SDS011;13668;52.154;5.580;2023-04-03T15:29:43;2.90;;;1.42;;
24357;SDS011;13668;52.154;5.580;2023-04-03T15:32:09;3.08;;;1.33;;
24357;SDS011;13668;52.154;5.580;2023-04-03T15:34:35;2.53;;;1.08;;
24357;SDS011;13668;52.154;5.580;2023-04-03T15:37:02;2.75;;;1.17;;
24357;SDS011;13668;52.154;5.580;2023-04-03T15:39:34;2.90;;;1.23;;
24357;SDS011;13668;52.154;5.580;2023-04-03T15:42:00;3.10;;;1.13;;
24357;SDS011;13668;52.154;5.580;2023-04-03T15:44:30;2.22;;;1.33;;
24357;SDS011;13668;52.154;5.580;2023-04-03T15:46:57;4.03;;;1.70;;
24357;SDS011;13668;52.154;5.580;2023-04-03T15:49:23;3.08;;;1.38;;
24357;SDS011;13668;52.154;5.580;2023-04-03T15:51:49;1.92;;;1.30;;
24357;SDS011;13668;52.154;5.580;2023-04-03T15:54:15;3.20;;;1.42;;
24357;SDS011;13668;52.154;5.580;2023-04-03T15:56:42;1.83;;;1.40;;
24357;SDS011;13668;52.154;5.580;2023-04-03T15:59:07;1.35;;;1.10;;